sensor_id;sensor_type;location;lat;lon;timestamp;P1;durP1;ratioP1;P2;durP2;ratioP2
33716;SDS011;20046;50.746;7.072;2023-06-22T00:02:17;15.52;;;8.95;;
33716;SDS011;20046;50.746;7.072;2023-06-22T00:04:42;11.98;;;7.93;;
33716;SDS011;20046;50.746;7.072;2023-06-22T00:07:08;11.88;;;7.93;;
33716;SDS011;20046;50.746;7.072;2023-06-22T00:09:34;10.90;;;8.60;;
33716;SDS011;20046;50.746;7.072;2023-06-22T00:12:00;12.98;;;8.05;;
33716;SDS011;20046;50.746;7.072;2023-06-22T00:14:26;12.80;;;8.70;;
33716;SDS011;20046;50.746;7.072;2023-06-22T00:16:52;15.55;;;9.30;;
33716;SDS011;20046;50.746;7.072;2023-06-22T00:19:22;16.33;;;9.32;;
33716;SDS011;20046;50.746;7.072;2023-06-22T00:21:48;14.82;;;9.60;;
33716;SDS011;20046;50.746;7.072;2023-06-22T00:24:17;16.42;;;9.52;;
33716;SDS011;20046;50.746;7.072;2023-06-22T00:26:43;15.65;;;9.32;;
33716;SDS011;20046;50.746;7.072;2023-06-22T00:29:09;18.05;;;8.90;;
33716;SDS011;20046;50.746;7.072;2023-06-22T00:31:34;14.32;;;9.43;;
33716;SDS011;20046;50.746;7.072;2023-06-22T00:34:00;15.88;;;9.73;;
33716;SDS011;20046;50.746;7.072;2023-06-22T00:36:26;13.50;;;9.18;;
33716;SDS011;20046;50.746;7.072;2023-06-22T00:38:51;11.27;;;8.40;;
33716;SDS011;20046;50.746;7.072;2023-06-22T00:41:17;12.82;;;8.65;;
33716;SDS011;20046;50.746;7.072;2023-06-22T00:43:43;14.65;;;9.27;;
33716;SDS011;20046;50.746;7.072;2023-06-22T00:46:08;14.80;;;9.13;;
33716;SDS011;20046;50.746;7.072;2023-06-22T00:48:34;12.50;;;8.65;;
33716;SDS011;20046;50.746;7.072;2023-06-22T00:51:02;14.43;;;8.50;;
33716;SDS011;20046;50.746;7.072;2023-06-22T00:53:28;14.02;;;9.13;;
33716;SDS011;20046;50.746;7.072;2023-06-22T00:55:53;12.98;;;8.77;;
33716;SDS011;20046;50.746;7.072;2023-06-22T00:58:21;11.90;;;8.55;;
33716;SDS011;20046;50.746;7.072;2023-06-22T01:00:47;13.70;;;8.90;;
33716;SDS011;20046;50.746;7.072;2023-06-22T01:03:14;13.70;;;9.10;;
33716;SDS011;20046;50.746;7.072;2023-06-22T01:05:41;12.20;;;8.80;;
33716;SDS011;20046;50.746;7.072;2023-06-22T01:11:19;11.27;;;8.65;;
33716;SDS011;20046;50.746;7.072;2023-06-22T01:16:31;13.85;;;9.00;;
33716;SDS011;20046;50.746;7.072;2023-06-22T01:19:01;10.98;;;8.95;;
33716;SDS011;20046;50.746;7.072;2023-06-22T01:21:50;12.95;;;9.27;;
33716;SDS011;20046;50.746;7.072;2023-06-22T01:24:26;10.57;;;8.80;;
33716;SDS011;20046;50.746;7.072;2023-06-22T01:27:04;16.85;;;8.93;;
33716;SDS011;20046;50.746;7.072;2023-06-22T01:29:47;13.07;;;9.40;;
33716;SDS011;20046;50.746;7.072;2023-06-22T01:32:27;13.10;;;9.85;;
33716;SDS011;20046;50.746;7.072;2023-06-22T01:35:00;14.60;;;9.88;;
33716;SDS011;20046;50.746;7.072;2023-06-22T01:37:28;14.50;;;10.30;;
33716;SDS011;20046;50.746;7.072;2023-06-22T01:39:57;13.40;;;9.70;;
33716;SDS011;20046;50.746;7.072;2023-06-22T01:42:24;11.80;;;9.15;;
33716;SDS011;20046;50.746;7.072;2023-06-22T01:44:51;11.20;;;8.73;;
33716;SDS011;20046;50.746;7.072;2023-06-22T01:47:18;15.20;;;9.00;;
33716;SDS011;20046;50.746;7.072;2023-06-22T01:49:45;13.07;;;9.73;;
33716;SDS011;20046;50.746;7.072;2023-06-22T01:52:11;17.95;;;9.65;;
33716;SDS011;20046;50.746;7.072;2023-06-22T01:54:37;13.43;;;9.75;;
33716;SDS011;20046;50.746;7.072;2023-06-22T01:57:04;14.45;;;9.52;;
33716;SDS011;20046;50.746;7.072;2023-06-22T01:59:43;19.85;;;10.18;;
33716;SDS011;20046;50.746;7.072;2023-06-22T02:02:20;14.65;;;9.77;;
33716;SDS011;20046;50.746;7.072;2023-06-22T02:04:55;11.85;;;9.52;;
33716;SDS011;20046;50.746;7.072;2023-06-22T02:07:31;18.08;;;9.82;;
33716;SDS011;20046;50.746;7.072;2023-06-22T02:10:02;20.52;;;10.48;;
33716;SDS011;20046;50.746;7.072;2023-06-22T02:12:31;11.80;;;9.75;;
33716;SDS011;20046;50.746;7.072;2023-06-22T02:14:58;13.98;;;10.80;;
33716;SDS011;20046;50.746;7.072;2023-06-22T02:17:25;18.73;;;10.55;;
33716;SDS011;20046;50.746;7.072;2023-06-22T02:19:51;13.20;;;10.32;;
33716;SDS011;20046;50.746;7.072;2023-06-22T02:22:17;15.27;;;10.23;;
33716;SDS011;20046;50.746;7.072;2023-06-22T02:24:43;11.52;;;9.95;;
33716;SDS011;20046;50.746;7.072;2023-06-22T02:27:08;12.93;;;9.85;;
33716;SDS011;20046;50.746;7.072;2023-06-22T02:29:35;13.75;;;10.38;;
33716;SDS011;20046;50.746;7.072;2023-06-22T02:32:01;13.88;;;10.55;;
33716;SDS011;20046;50.746;7.072;2023-06-22T02:34:27;13.63;;;10.25;;
33716;SDS011;20046;50.746;7.072;2023-06-22T02:36:53;13.85;;;10.30;;
33716;SDS011;20046;50.746;7.072;2023-06-22T02:39:19;15.90;;;9.27;;
33716;SDS011;20046;50.746;7.072;2023-06-22T02:41:47;14.30;;;10.43;;
33716;SDS011;20046;50.746;7.072;2023-06-22T02:44:13;18.05;;;10.68;;
33716;SDS011;20046;50.746;7.072;2023-06-22T02:46:39;11.73;;;9.15;;
33716;SDS011;20046;50.746;7.072;2023-06-22T02:49:04;11.48;;;9.15;;
33716;SDS011;20046;50.746;7.072;2023-06-22T02:51:32;12.15;;;8.90;;
33716;SDS011;20046;50.746;7.072;2023-06-22T02:53:59;14.55;;;8.90;;
33716;SDS011;20046;50.746;7.072;2023-06-22T02:56:25;10.90;;;8.20;;
33716;SDS011;20046;50.746;7.072;2023-06-22T02:58:51;14.13;;;8.15;;
33716;SDS011;20046;50.746;7.072;2023-06-22T03:01:17;21.05;;;8.77;;
33716;SDS011;20046;50.746;7.072;2023-06-22T03:03:48;18.90;;;8.25;;
33716;SDS011;20046;50.746;7.072;2023-06-22T03:06:13;14.20;;;8.20;;
33716;SDS011;20046;50.746;7.072;2023-06-22T03:08:39;20.80;;;9.57;;
33716;SDS011;20046;50.746;7.072;2023-06-22T03:11:06;13.63;;;10.15;;
33716;SDS011;20046;50.746;7.072;2023-06-22T03:13:32;14.85;;;10.02;;
33716;SDS011;20046;50.746;7.072;2023-06-22T03:15:58;14.57;;;9.82;;
33716;SDS011;20046;50.746;7.072;2023-06-22T03:18:24;18.00;;;8.93;;
33716;SDS011;20046;50.746;7.072;2023-06-22T03:20:49;22.55;;;10.15;;
33716;SDS011;20046;50.746;7.072;2023-06-22T03:23:15;17.75;;;9.60;;
33716;SDS011;20046;50.746;7.072;2023-06-22T03:25:41;15.48;;;9.10;;
33716;SDS011;20046;50.746;7.072;2023-06-22T03:28:07;12.82;;;9.65;;
33716;SDS011;20046;50.746;7.072;2023-06-22T03:30:32;18.17;;;9.90;;
33716;SDS011;20046;50.746;7.072;2023-06-22T03:32:58;21.17;;;9.18;;
33716;SDS011;20046;50.746;7.072;2023-06-22T03:35:23;18.35;;;9.50;;
33716;SDS011;20046;50.746;7.072;2023-06-22T03:37:49;16.40;;;9.40;;
33716;SDS011;20046;50.746;7.072;2023-06-22T03:40:14;15.52;;;9.68;;
33716;SDS011;20046;50.746;7.072;2023-06-22T03:42:40;14.35;;;10.05;;
33716;SDS011;20046;50.746;7.072;2023-06-22T03:45:06;19.25;;;9.98;;
33716;SDS011;20046;50.746;7.072;2023-06-22T03:47:32;12.00;;;9.23;;
33716;SDS011;20046;50.746;7.072;2023-06-22T03:49:58;15.18;;;9.52;;
33716;SDS011;20046;50.746;7.072;2023-06-22T03:52:24;20.17;;;9.18;;
33716;SDS011;20046;50.746;7.072;2023-06-22T03:54:50;13.88;;;10.02;;
33716;SDS011;20046;50.746;7.072;2023-06-22T03:57:16;21.83;;;11.38;;
33716;SDS011;20046;50.746;7.072;2023-06-22T03:59:41;19.77;;;11.05;;
33716;SDS011;20046;50.746;7.072;2023-06-22T04:02:07;18.17;;;10.65;;
33716;SDS011;20046;50.746;7.072;2023-06-22T04:04:32;18.02;;;10.52;;
33716;SDS011;20046;50.746;7.072;2023-06-22T04:07:00;16.33;;;10.70;;
33716;SDS011;20046;50.746;7.072;2023-06-22T04:09:25;15.52;;;10.20;;
33716;SDS011;20046;50.746;7.072;2023-06-22T04:11:51;17.23;;;10.48;;
33716;SDS011;20046;50.746;7.072;2023-06-22T04:14:17;22.70;;;11.07;;
33716;SDS011;20046;50.746;7.072;2023-06-22T04:16:42;16.90;;;10.35;;
33716;SDS011;20046;50.746;7.072;2023-06-22T04:19:08;22.60;;;10.65;;
33716;SDS011;20046;50.746;7.072;2023-06-22T04:21:39;17.25;;;11.45;;
33716;SDS011;20046;50.746;7.072;2023-06-22T04:24:04;18.48;;;10.48;;
33716;SDS011;20046;50.746;7.072;2023-06-22T04:26:30;19.40;;;11.63;;
33716;SDS011;20046;50.746;7.072;2023-06-22T04:29:01;16.00;;;10.65;;
33716;SDS011;20046;50.746;7.072;2023-06-22T04:31:31;14.10;;;10.90;;
33716;SDS011;20046;50.746;7.072;2023-06-22T04:34:01;17.13;;;11.18;;
33716;SDS011;20046;50.746;7.072;2023-06-22T04:36:37;21.92;;;12.10;;
33716;SDS011;20046;50.746;7.072;2023-06-22T04:39:08;18.27;;;12.25;;
33716;SDS011;20046;50.746;7.072;2023-06-22T04:41:35;19.13;;;12.20;;
33716;SDS011;20046;50.746;7.072;2023-06-22T04:44:17;15.47;;;11.73;;
33716;SDS011;20046;50.746;7.072;2023-06-22T04:46:52;17.38;;;11.07;;
33716;SDS011;20046;50.746;7.072;2023-06-22T04:49:25;18.83;;;13.23;;
33716;SDS011;20046;50.746;7.072;2023-06-22T04:51:57;20.95;;;13.15;;
33716;SDS011;20046;50.746;7.072;2023-06-22T04:54:23;23.52;;;12.38;;
33716;SDS011;20046;50.746;7.072;2023-06-22T04:56:49;19.02;;;13.10;;
33716;SDS011;20046;50.746;7.072;2023-06-22T04:59:21;25.65;;;11.43;;
33716;SDS011;20046;50.746;7.072;2023-06-22T05:01:47;13.77;;;11.27;;
33716;SDS011;20046;50.746;7.072;2023-06-22T05:04:13;18.10;;;10.32;;
33716;SDS011;20046;50.746;7.072;2023-06-22T05:06:39;24.67;;;11.93;;
33716;SDS011;20046;50.746;7.072;2023-06-22T05:09:04;20.15;;;12.38;;
33716;SDS011;20046;50.746;7.072;2023-06-22T05:11:30;22.40;;;11.70;;
33716;SDS011;20046;50.746;7.072;2023-06-22T05:13:56;14.68;;;11.43;;
33716;SDS011;20046;50.746;7.072;2023-06-22T05:16:21;17.10;;;10.65;;
33716;SDS011;20046;50.746;7.072;2023-06-22T05:18:52;20.58;;;12.60;;
33716;SDS011;20046;50.746;7.072;2023-06-22T05:21:22;21.15;;;12.95;;
33716;SDS011;20046;50.746;7.072;2023-06-22T05:23:49;18.67;;;12.55;;
33716;SDS011;20046;50.746;7.072;2023-06-22T05:26:15;21.17;;;13.32;;
33716;SDS011;20046;50.746;7.072;2023-06-22T05:28:41;20.05;;;13.80;;
33716;SDS011;20046;50.746;7.072;2023-06-22T05:31:11;25.42;;;13.88;;
33716;SDS011;20046;50.746;7.072;2023-06-22T05:33:37;19.90;;;13.98;;
33716;SDS011;20046;50.746;7.072;2023-06-22T05:36:03;23.17;;;13.95;;
33716;SDS011;20046;50.746;7.072;2023-06-22T05:38:29;23.42;;;14.23;;
33716;SDS011;20046;50.746;7.072;2023-06-22T05:40:54;20.25;;;13.32;;
33716;SDS011;20046;50.746;7.072;2023-06-22T05:43:20;23.90;;;13.35;;
33716;SDS011;20046;50.746;7.072;2023-06-22T05:45:46;15.05;;;12.60;;
33716;SDS011;20046;50.746;7.072;2023-06-22T05:48:11;19.63;;;12.60;;
33716;SDS011;20046;50.746;7.072;2023-06-22T05:50:37;18.35;;;13.05;;
33716;SDS011;20046;50.746;7.072;2023-06-22T05:53:02;17.45;;;12.43;;
33716;SDS011;20046;50.746;7.072;2023-06-22T05:55:28;22.45;;;13.02;;
33716;SDS011;20046;50.746;7.072;2023-06-22T05:57:54;18.05;;;13.05;;
33716;SDS011;20046;50.746;7.072;2023-06-22T06:00:19;16.92;;;13.02;;
33716;SDS011;20046;50.746;7.072;2023-06-22T06:02:47;20.73;;;12.90;;
33716;SDS011;20046;50.746;7.072;2023-06-22T06:05:14;17.40;;;12.02;;
33716;SDS011;20046;50.746;7.072;2023-06-22T06:07:40;21.83;;;12.75;;
33716;SDS011;20046;50.746;7.072;2023-06-22T06:10:06;23.60;;;13.18;;
33716;SDS011;20046;50.746;7.072;2023-06-22T06:12:32;19.38;;;13.48;;
33716;SDS011;20046;50.746;7.072;2023-06-22T06:14:58;18.60;;;12.60;;
33716;SDS011;20046;50.746;7.072;2023-06-22T06:17:24;17.50;;;13.50;;
33716;SDS011;20046;50.746;7.072;2023-06-22T06:19:49;18.67;;;13.38;;
33716;SDS011;20046;50.746;7.072;2023-06-22T06:22:15;18.13;;;12.05;;
33716;SDS011;20046;50.746;7.072;2023-06-22T06:24:40;24.98;;;14.02;;
33716;SDS011;20046;50.746;7.072;2023-06-22T06:27:06;19.90;;;13.15;;
33716;SDS011;20046;50.746;7.072;2023-06-22T06:29:32;24.20;;;13.25;;
33716;SDS011;20046;50.746;7.072;2023-06-22T06:31:57;30.23;;;13.77;;
33716;SDS011;20046;50.746;7.072;2023-06-22T06:34:23;26.55;;;14.15;;
33716;SDS011;20046;50.746;7.072;2023-06-22T06:36:49;22.63;;;13.48;;
33716;SDS011;20046;50.746;7.072;2023-06-22T06:39:14;29.48;;;14.05;;
33716;SDS011;20046;50.746;7.072;2023-06-22T06:41:41;17.65;;;13.07;;
33716;SDS011;20046;50.746;7.072;2023-06-22T06:44:06;21.95;;;14.15;;
33716;SDS011;20046;50.746;7.072;2023-06-22T06:46:32;17.13;;;13.05;;
33716;SDS011;20046;50.746;7.072;2023-06-22T06:48:58;15.35;;;12.27;;
33716;SDS011;20046;50.746;7.072;2023-06-22T06:51:23;20.35;;;12.45;;
33716;SDS011;20046;50.746;7.072;2023-06-22T06:53:49;18.58;;;13.38;;
33716;SDS011;20046;50.746;7.072;2023-06-22T06:56:15;21.48;;;13.60;;
33716;SDS011;20046;50.746;7.072;2023-06-22T06:58:41;22.83;;;13.00;;
33716;SDS011;20046;50.746;7.072;2023-06-22T07:01:10;18.38;;;13.48;;
33716;SDS011;20046;50.746;7.072;2023-06-22T07:03:39;16.25;;;12.55;;
33716;SDS011;20046;50.746;7.072;2023-06-22T07:06:05;25.00;;;13.52;;
33716;SDS011;20046;50.746;7.072;2023-06-22T07:08:30;20.05;;;12.85;;
33716;SDS011;20046;50.746;7.072;2023-06-22T07:10:56;19.55;;;13.70;;
33716;SDS011;20046;50.746;7.072;2023-06-22T07:13:22;22.83;;;13.40;;
33716;SDS011;20046;50.746;7.072;2023-06-22T07:15:47;18.88;;;13.48;;
33716;SDS011;20046;50.746;7.072;2023-06-22T07:18:13;19.88;;;13.63;;
33716;SDS011;20046;50.746;7.072;2023-06-22T07:20:39;16.90;;;12.43;;
33716;SDS011;20046;50.746;7.072;2023-06-22T07:23:06;18.02;;;12.38;;
33716;SDS011;20046;50.746;7.072;2023-06-22T07:25:31;15.85;;;12.27;;
33716;SDS011;20046;50.746;7.072;2023-06-22T07:28:01;23.75;;;12.32;;
33716;SDS011;20046;50.746;7.072;2023-06-22T07:30:27;16.55;;;11.43;;
33716;SDS011;20046;50.746;7.072;2023-06-22T07:32:53;13.63;;;10.30;;
33716;SDS011;20046;50.746;7.072;2023-06-22T07:35:19;12.48;;;10.77;;
33716;SDS011;20046;50.746;7.072;2023-06-22T07:37:44;11.40;;;10.15;;
33716;SDS011;20046;50.746;7.072;2023-06-22T07:40:10;15.07;;;10.10;;
33716;SDS011;20046;50.746;7.072;2023-06-22T07:42:36;15.77;;;11.15;;
33716;SDS011;20046;50.746;7.072;2023-06-22T07:45:02;12.68;;;9.77;;
33716;SDS011;20046;50.746;7.072;2023-06-22T07:47:29;14.95;;;10.52;;
33716;SDS011;20046;50.746;7.072;2023-06-22T07:49:58;12.00;;;10.20;;
33716;SDS011;20046;50.746;7.072;2023-06-22T07:52:26;12.23;;;10.38;;
33716;SDS011;20046;50.746;7.072;2023-06-22T07:54:52;13.75;;;9.40;;
33716;SDS011;20046;50.746;7.072;2023-06-22T07:57:18;24.15;;;9.45;;
33716;SDS011;20046;50.746;7.072;2023-06-22T07:59:44;14.95;;;8.93;;
33716;SDS011;20046;50.746;7.072;2023-06-22T08:02:10;13.38;;;9.02;;
33716;SDS011;20046;50.746;7.072;2023-06-22T08:04:36;13.63;;;8.85;;
33716;SDS011;20046;50.746;7.072;2023-06-22T08:07:02;13.13;;;9.15;;
33716;SDS011;20046;50.746;7.072;2023-06-22T08:09:29;14.18;;;9.13;;
33716;SDS011;20046;50.746;7.072;2023-06-22T08:11:56;13.65;;;8.95;;
33716;SDS011;20046;50.746;7.072;2023-06-22T08:14:25;12.05;;;9.02;;
33716;SDS011;20046;50.746;7.072;2023-06-22T08:16:52;11.55;;;9.13;;
33716;SDS011;20046;50.746;7.072;2023-06-22T08:19:17;12.52;;;10.00;;
33716;SDS011;20046;50.746;7.072;2023-06-22T08:21:43;10.95;;;8.65;;
33716;SDS011;20046;50.746;7.072;2023-06-22T08:24:09;13.75;;;9.18;;
33716;SDS011;20046;50.746;7.072;2023-06-22T08:26:35;10.20;;;8.88;;
33716;SDS011;20046;50.746;7.072;2023-06-22T08:29:03;10.70;;;8.95;;
33716;SDS011;20046;50.746;7.072;2023-06-22T08:31:29;12.20;;;9.15;;
33716;SDS011;20046;50.746;7.072;2023-06-22T08:33:55;11.40;;;10.05;;
33716;SDS011;20046;50.746;7.072;2023-06-22T08:36:21;13.35;;;9.85;;
33716;SDS011;20046;50.746;7.072;2023-06-22T08:38:47;13.13;;;9.45;;
33716;SDS011;20046;50.746;7.072;2023-06-22T08:41:16;13.23;;;9.73;;
33716;SDS011;20046;50.746;7.072;2023-06-22T08:43:43;12.73;;;9.35;;
33716;SDS011;20046;50.746;7.072;2023-06-22T08:46:09;13.02;;;10.82;;
33716;SDS011;20046;50.746;7.072;2023-06-22T08:48:35;13.02;;;10.35;;
33716;SDS011;20046;50.746;7.072;2023-06-22T08:51:01;14.27;;;9.68;;
33716;SDS011;20046;50.746;7.072;2023-06-22T08:53:28;11.32;;;9.55;;
33716;SDS011;20046;50.746;7.072;2023-06-22T08:55:53;13.20;;;10.05;;
33716;SDS011;20046;50.746;7.072;2023-06-22T08:58:19;12.90;;;9.95;;
33716;SDS011;20046;50.746;7.072;2023-06-22T09:00:46;13.05;;;10.10;;
33716;SDS011;20046;50.746;7.072;2023-06-22T09:03:12;15.45;;;10.52;;
33716;SDS011;20046;50.746;7.072;2023-06-22T09:05:38;13.30;;;9.98;;
33716;SDS011;20046;50.746;7.072;2023-06-22T09:08:04;12.77;;;9.65;;
33716;SDS011;20046;50.746;7.072;2023-06-22T09:10:30;18.23;;;10.77;;
33716;SDS011;20046;50.746;7.072;2023-06-22T09:12:56;14.10;;;10.38;;
33716;SDS011;20046;50.746;7.072;2023-06-22T09:15:22;13.40;;;10.32;;
33716;SDS011;20046;50.746;7.072;2023-06-22T09:17:48;13.65;;;10.32;;
33716;SDS011;20046;50.746;7.072;2023-06-22T09:20:13;11.77;;;9.50;;
33716;SDS011;20046;50.746;7.072;2023-06-22T09:22:40;14.77;;;10.18;;
33716;SDS011;20046;50.746;7.072;2023-06-22T09:25:06;13.13;;;9.40;;
33716;SDS011;20046;50.746;7.072;2023-06-22T09:27:32;12.05;;;9.95;;
33716;SDS011;20046;50.746;7.072;2023-06-22T09:29:58;11.27;;;9.50;;
33716;SDS011;20046;50.746;7.072;2023-06-22T09:32:24;12.63;;;9.23;;
33716;SDS011;20046;50.746;7.072;2023-06-22T09:34:50;12.90;;;9.10;;
33716;SDS011;20046;50.746;7.072;2023-06-22T09:37:16;11.88;;;9.38;;
33716;SDS011;20046;50.746;7.072;2023-06-22T09:39:42;14.32;;;9.20;;
33716;SDS011;20046;50.746;7.072;2023-06-22T09:42:07;14.00;;;9.65;;
33716;SDS011;20046;50.746;7.072;2023-06-22T09:44:33;9.45;;;8.45;;
33716;SDS011;20046;50.746;7.072;2023-06-22T09:46:59;11.60;;;9.38;;
33716;SDS011;20046;50.746;7.072;2023-06-22T09:49:25;12.57;;;9.35;;
33716;SDS011;20046;50.746;7.072;2023-06-22T09:51:51;10.68;;;9.55;;
33716;SDS011;20046;50.746;7.072;2023-06-22T09:54:17;15.68;;;9.60;;
33716;SDS011;20046;50.746;7.072;2023-06-22T09:56:43;12.40;;;9.77;;
33716;SDS011;20046;50.746;7.072;2023-06-22T09:59:09;10.75;;;9.50;;
33716;SDS011;20046;50.746;7.072;2023-06-22T10:01:34;14.90;;;10.45;;
33716;SDS011;20046;50.746;7.072;2023-06-22T10:04:01;12.77;;;10.35;;
33716;SDS011;20046;50.746;7.072;2023-06-22T10:06:27;14.95;;;10.15;;
33716;SDS011;20046;50.746;7.072;2023-06-22T10:08:53;13.35;;;9.95;;
33716;SDS011;20046;50.746;7.072;2023-06-22T10:11:18;16.70;;;10.60;;
33716;SDS011;20046;50.746;7.072;2023-06-22T10:13:44;12.60;;;10.30;;
33716;SDS011;20046;50.746;7.072;2023-06-22T10:16:09;16.02;;;11.02;;
33716;SDS011;20046;50.746;7.072;2023-06-22T10:18:35;15.13;;;10.02;;
33716;SDS011;20046;50.746;7.072;2023-06-22T10:21:01;13.27;;;10.90;;
33716;SDS011;20046;50.746;7.072;2023-06-22T10:23:27;14.98;;;10.55;;
33716;SDS011;20046;50.746;7.072;2023-06-22T10:25:53;12.45;;;10.63;;
33716;SDS011;20046;50.746;7.072;2023-06-22T10:28:18;13.20;;;10.80;;
33716;SDS011;20046;50.746;7.072;2023-06-22T10:30:44;14.35;;;11.52;;
33716;SDS011;20046;50.746;7.072;2023-06-22T10:33:10;15.80;;;12.95;;
33716;SDS011;20046;50.746;7.072;2023-06-22T10:35:37;21.48;;;12.70;;
33716;SDS011;20046;50.746;7.072;2023-06-22T10:38:04;18.45;;;14.25;;
33716;SDS011;20046;50.746;7.072;2023-06-22T10:40:30;20.10;;;13.48;;
33716;SDS011;20046;50.746;7.072;2023-06-22T10:42:56;16.50;;;12.48;;
33716;SDS011;20046;50.746;7.072;2023-06-22T10:45:22;20.45;;;15.85;;
33716;SDS011;20046;50.746;7.072;2023-06-22T10:47:48;23.23;;;14.98;;
33716;SDS011;20046;50.746;7.072;2023-06-22T10:50:14;25.88;;;15.52;;
33716;SDS011;20046;50.746;7.072;2023-06-22T10:52:40;18.75;;;16.02;;
33716;SDS011;20046;50.746;7.072;2023-06-22T10:55:09;21.10;;;15.73;;
33716;SDS011;20046;50.746;7.072;2023-06-22T10:57:35;30.75;;;18.92;;
33716;SDS011;20046;50.746;7.072;2023-06-22T11:00:02;32.38;;;19.88;;
33716;SDS011;20046;50.746;7.072;2023-06-22T11:02:37;41.70;;;21.67;;
33716;SDS011;20046;50.746;7.072;2023-06-22T11:05:03;36.53;;;22.08;;
33716;SDS011;20046;50.746;7.072;2023-06-22T11:07:30;45.08;;;23.48;;
33716;SDS011;20046;50.746;7.072;2023-06-22T11:09:56;36.05;;;23.42;;
33716;SDS011;20046;50.746;7.072;2023-06-22T11:12:22;36.55;;;23.88;;
33716;SDS011;20046;50.746;7.072;2023-06-22T11:14:47;31.40;;;21.80;;
33716;SDS011;20046;50.746;7.072;2023-06-22T11:17:16;38.60;;;22.77;;
33716;SDS011;20046;50.746;7.072;2023-06-22T11:19:43;33.28;;;22.13;;
33716;SDS011;20046;50.746;7.072;2023-06-22T11:22:09;27.55;;;21.10;;
33716;SDS011;20046;50.746;7.072;2023-06-22T11:24:35;40.45;;;22.40;;
33716;SDS011;20046;50.746;7.072;2023-06-22T11:27:01;28.30;;;20.15;;
33716;SDS011;20046;50.746;7.072;2023-06-22T11:29:27;30.63;;;19.15;;
33716;SDS011;20046;50.746;7.072;2023-06-22T11:31:53;21.08;;;16.63;;
33716;SDS011;20046;50.746;7.072;2023-06-22T11:34:19;19.30;;;15.88;;
33716;SDS011;20046;50.746;7.072;2023-06-22T11:36:45;27.33;;;17.38;;
33716;SDS011;20046;50.746;7.072;2023-06-22T11:39:13;21.30;;;16.17;;
33716;SDS011;20046;50.746;7.072;2023-06-22T11:41:40;28.95;;;17.70;;
33716;SDS011;20046;50.746;7.072;2023-06-22T11:44:07;17.80;;;14.52;;
33716;SDS011;20046;50.746;7.072;2023-06-22T11:46:33;17.25;;;14.65;;
33716;SDS011;20046;50.746;7.072;2023-06-22T11:48:59;19.73;;;14.43;;
33716;SDS011;20046;50.746;7.072;2023-06-22T11:51:25;19.45;;;14.55;;
33716;SDS011;20046;50.746;7.072;2023-06-22T11:53:51;23.00;;;16.15;;
33716;SDS011;20046;50.746;7.072;2023-06-22T11:56:18;23.85;;;18.20;;
33716;SDS011;20046;50.746;7.072;2023-06-22T11:58:44;22.75;;;16.83;;
33716;SDS011;20046;50.746;7.072;2023-06-22T12:01:10;25.42;;;16.45;;
33716;SDS011;20046;50.746;7.072;2023-06-22T12:03:35;23.98;;;18.95;;
33716;SDS011;20046;50.746;7.072;2023-06-22T12:06:02;20.70;;;16.55;;
33716;SDS011;20046;50.746;7.072;2023-06-22T12:08:28;25.85;;;17.85;;
33716;SDS011;20046;50.746;7.072;2023-06-22T12:10:53;19.45;;;16.80;;
33716;SDS011;20046;50.746;7.072;2023-06-22T12:13:19;19.42;;;16.52;;
33716;SDS011;20046;50.746;7.072;2023-06-22T12:15:46;23.63;;;17.27;;
33716;SDS011;20046;50.746;7.072;2023-06-22T12:18:12;22.10;;;18.40;;
33716;SDS011;20046;50.746;7.072;2023-06-22T12:20:40;27.48;;;19.80;;
33716;SDS011;20046;50.746;7.072;2023-06-22T12:23:06;22.48;;;17.90;;
33716;SDS011;20046;50.746;7.072;2023-06-22T12:25:31;22.60;;;16.15;;
33716;SDS011;20046;50.746;7.072;2023-06-22T12:27:57;21.63;;;15.30;;
33716;SDS011;20046;50.746;7.072;2023-06-22T12:30:23;23.92;;;15.70;;
33716;SDS011;20046;50.746;7.072;2023-06-22T12:32:48;18.05;;;12.90;;
33716;SDS011;20046;50.746;7.072;2023-06-22T12:35:15;14.55;;;9.98;;
33716;SDS011;20046;50.746;7.072;2023-06-22T12:37:41;10.43;;;7.55;;
33716;SDS011;20046;50.746;7.072;2023-06-22T12:40:07;13.65;;;7.80;;
33716;SDS011;20046;50.746;7.072;2023-06-22T12:42:33;7.93;;;5.82;;
33716;SDS011;20046;50.746;7.072;2023-06-22T12:44:59;7.40;;;6.28;;
33716;SDS011;20046;50.746;7.072;2023-06-22T12:47:24;8.27;;;5.88;;
33716;SDS011;20046;50.746;7.072;2023-06-22T12:49:50;12.25;;;7.03;;
33716;SDS011;20046;50.746;7.072;2023-06-22T12:52:16;9.05;;;6.13;;
33716;SDS011;20046;50.746;7.072;2023-06-22T12:54:41;9.25;;;6.40;;
33716;SDS011;20046;50.746;7.072;2023-06-22T12:57:07;8.93;;;6.45;;
33716;SDS011;20046;50.746;7.072;2023-06-22T12:59:32;11.27;;;6.60;;
33716;SDS011;20046;50.746;7.072;2023-06-22T13:01:58;10.65;;;6.70;;
33716;SDS011;20046;50.746;7.072;2023-06-22T13:04:23;9.85;;;6.82;;
33716;SDS011;20046;50.746;7.072;2023-06-22T13:06:49;10.48;;;7.13;;
33716;SDS011;20046;50.746;7.072;2023-06-22T13:09:15;8.50;;;6.45;;
33716;SDS011;20046;50.746;7.072;2023-06-22T13:11:42;8.00;;;6.75;;
33716;SDS011;20046;50.746;7.072;2023-06-22T13:14:08;10.13;;;7.35;;
33716;SDS011;20046;50.746;7.072;2023-06-22T13:16:34;9.15;;;6.78;;
33716;SDS011;20046;50.746;7.072;2023-06-22T13:18:59;11.40;;;6.78;;
33716;SDS011;20046;50.746;7.072;2023-06-22T13:21:25;11.23;;;6.65;;
33716;SDS011;20046;50.746;7.072;2023-06-22T13:23:51;10.27;;;6.00;;
33716;SDS011;20046;50.746;7.072;2023-06-22T13:26:16;6.53;;;4.82;;
33716;SDS011;20046;50.746;7.072;2023-06-22T13:28:42;8.65;;;4.72;;
33716;SDS011;20046;50.746;7.072;2023-06-22T13:31:08;7.25;;;4.80;;
33716;SDS011;20046;50.746;7.072;2023-06-22T13:33:33;5.45;;;4.15;;
33716;SDS011;20046;50.746;7.072;2023-06-22T13:35:59;7.13;;;3.80;;
33716;SDS011;20046;50.746;7.072;2023-06-22T13:38:24;5.32;;;4.00;;
33716;SDS011;20046;50.746;7.072;2023-06-22T13:40:50;4.75;;;4.22;;
33716;SDS011;20046;50.746;7.072;2023-06-22T13:43:16;11.02;;;4.63;;
33716;SDS011;20046;50.746;7.072;2023-06-22T13:45:42;6.93;;;4.28;;
33716;SDS011;20046;50.746;7.072;2023-06-22T13:48:08;7.50;;;4.43;;
33716;SDS011;20046;50.746;7.072;2023-06-22T13:50:34;5.65;;;4.90;;
33716;SDS011;20046;50.746;7.072;2023-06-22T13:52:59;5.78;;;4.95;;
33716;SDS011;20046;50.746;7.072;2023-06-22T13:55:25;9.35;;;5.25;;
33716;SDS011;20046;50.746;7.072;2023-06-22T13:57:51;11.38;;;5.82;;
33716;SDS011;20046;50.746;7.072;2023-06-22T14:00:17;8.63;;;6.82;;
33716;SDS011;20046;50.746;7.072;2023-06-22T14:02:43;8.20;;;6.50;;
33716;SDS011;20046;50.746;7.072;2023-06-22T14:05:09;11.07;;;7.07;;
33716;SDS011;20046;50.746;7.072;2023-06-22T14:07:35;9.13;;;7.50;;
33716;SDS011;20046;50.746;7.072;2023-06-22T14:10:02;10.77;;;7.30;;
33716;SDS011;20046;50.746;7.072;2023-06-22T14:12:28;7.85;;;6.28;;
33716;SDS011;20046;50.746;7.072;2023-06-22T14:14:54;8.98;;;7.03;;
33716;SDS011;20046;50.746;7.072;2023-06-22T14:17:19;9.18;;;6.57;;
33716;SDS011;20046;50.746;7.072;2023-06-22T14:19:49;6.68;;;5.97;;
33716;SDS011;20046;50.746;7.072;2023-06-22T14:22:17;8.13;;;6.57;;
33716;SDS011;20046;50.746;7.072;2023-06-22T14:24:42;8.18;;;7.35;;
33716;SDS011;20046;50.746;7.072;2023-06-22T14:27:08;9.90;;;7.22;;
33716;SDS011;20046;50.746;7.072;2023-06-22T14:29:34;9.50;;;7.03;;
33716;SDS011;20046;50.746;7.072;2023-06-22T14:32:00;13.15;;;8.57;;